Time;durP1;ratioP1;P1;durP2;ratioP2;P2;SDS_P1;SDS_P2;PMS_P1;PMS_P2;Temp;Humidity;BMP_temperature;BMP_pressure;BME280_temperature;BME280_humidity;BME280_pressure;Samples;Min_cycle;Max_cycle;Signal;HPM_P1;HPM_P2
2021/01/01 00:02:23;;;;;;;9.45;7.93;;;3.40;1.00;;;;;;4940385;28;20236;-72
2021/01/01 00:04:51;;;;;;;11.05;7.97;;;3.40;1.00;;;;;;4939594;28;20212;-74
2021/01/01 00:07:21;;;;;;;9.82;8.52;;;3.40;1.00;;;;;;4942201;28;20237;-74
2021/01/01 00:09:48;;;;;;;12.80;9.02;;;3.50;1.00;;;;;;4944508;28;20226;-73
2021/01/01 00:12:15;;;;;;;11.93;10.15;;;3.70;1.00;;;;;;4945030;28;20235;-73
2021/01/01 00:14:42;;;;;;;13.82;11.05;;;3.80;1.00;;;;;;4944979;28;20241;-76
2021/01/01 00:17:09;;;;;;;13.27;8.80;;;3.80;1.00;;;;;;4945889;28;20242;-74
2021/01/01 00:19:36;;;;;;;15.32;12.20;;;3.90;1.00;;;;;;4959887;28;20314;-73
2021/01/01 00:22:10;;;;;;;12.95;10.18;;;3.90;1.00;;;;;;4946370;28;20234;-73
2021/01/01 00:24:38;;;;;;;11.60;10.40;;;3.80;1.00;;;;;;4946509;28;20499;-73
2021/01/01 00:27:06;;;;;;;9.57;8.70;;;3.70;1.00;;;;;;4942978;28;20217;-74
2021/01/01 00:29:33;;;;;;;11.27;8.30;;;3.80;1.00;;;;;;4941228;28;20291;-73
2021/01/01 00:32:00;;;;;;;10.10;8.30;;;3.80;1.00;;;;;;4949490;28;20268;-72
2021/01/01 00:34:27;;;;;;;12.05;8.93;;;3.80;1.00;;;;;;4946848;28;20223;-74
2021/01/01 00:36:54;;;;;;;16.52;11.73;;;3.80;1.00;;;;;;4945392;28;20215;-76
2021/01/01 00:39:22;;;;;;;14.50;11.20;;;3.80;1.00;;;;;;4939820;28;20224;-76
2021/01/01 00:41:49;;;;;;;13.43;10.18;;;3.60;1.00;;;;;;4951973;28;20230;-77
2021/01/01 00:44:17;;;;;;;16.75;12.20;;;3.60;1.00;;;;;;4934773;28;20611;-74
2021/01/01 00:46:44;;;;;;;15.60;11.63;;;3.60;1.00;;;;;;4932586;28;20270;-74
2021/01/01 00:49:11;;;;;;;14.45;10.73;;;3.70;1.00;;;;;;4933519;28;20755;-75
2021/01/01 00:51:38;;;;;;;10.90;9.43;;;3.60;1.00;;;;;;4940094;28;20236;-74
2021/01/01 00:54:06;;;;;;;12.90;9.50;;;3.40;1.00;;;;;;4944008;28;20232;-72
2021/01/01 00:56:33;;;;;;;11.85;8.50;;;3.30;1.00;;;;;;4941403;28;20681;-74
2021/01/01 00:59:01;;;;;;;10.05;8.02;;;3.30;1.00;;;;;;4956501;28;20215;-73
2021/01/01 01:01:28;;;;;;;8.65;6.85;;;3.40;1.00;;;;;;4944346;28;20241;-73
2021/01/01 01:03:57;;;;;;;12.20;6.50;;;3.40;1.00;;;;;;4942441;28;20215;-73
2021/01/01 01:06:25;;;;;;;7.55;6.85;;;3.40;1.00;;;;;;4945577;28;20211;-72
2021/01/01 01:08:53;;;;;;;9.27;8.38;;;3.30;1.00;;;;;;4942840;28;20471;-74
2021/01/01 01:11:23;;;;;;;8.68;7.60;;;3.30;1.00;;;;;;4942754;28;20234;-74
2021/01/01 01:13:51;;;;;;;7.55;6.47;;;3.30;1.00;;;;;;4947427;28;20489;-72
2021/01/01 01:16:22;;;;;;;9.25;7.60;;;3.40;1.00;;;;;;4946179;28;20211;-74
2021/01/01 01:18:50;;;;;;;9.75;7.63;;;3.60;1.00;;;;;;4945026;28;20878;-73
2021/01/01 01:21:18;;;;;;;7.25;6.47;;;3.70;1.00;;;;;;4942538;28;20684;-74
2021/01/01 01:23:45;;;;;;;10.70;7.80;;;3.80;1.00;;;;;;4948112;28;20220;-72
2021/01/01 01:26:12;;;;;;;11.05;9.27;;;3.80;1.00;;;;;;4940756;28;20606;-71
2021/01/01 01:28:39;;;;;;;9.02;7.68;;;3.90;1.00;;;;;;4941990;28;20230;-72
2021/01/01 01:31:07;;;;;;;11.15;9.45;;;4.00;1.00;;;;;;4940606;28;20220;-72
2021/01/01 01:33:35;;;;;;;9.93;8.40;;;4.00;1.00;;;;;;4945879;28;20212;-73
2021/01/01 01:36:02;;;;;;;11.00;8.40;;;4.10;1.00;;;;;;4938329;28;20217;-74
2021/01/01 01:38:29;;;;;;;11.00;9.35;;;4.10;1.00;;;;;;4945162;28;20692;-74
2021/01/01 01:40:57;;;;;;;7.85;7.05;;;4.10;1.00;;;;;;4940716;28;20216;-73
2021/01/01 01:43:25;;;;;;;11.45;9.27;;;4.20;1.00;;;;;;4941612;28;20228;-73
2021/01/01 01:45:55;;;;;;;10.25;9.02;;;4.10;1.00;;;;;;4943619;28;20228;-75
2021/01/01 01:48:27;;;;;;;13.68;10.32;;;4.20;1.00;;;;;;4940623;28;21092;-73
2021/01/01 01:50:55;;;;;;;10.48;8.90;;;4.20;1.00;;;;;;4946972;28;20875;-72
2021/01/01 01:53:22;;;;;;;11.35;9.73;;;4.20;1.00;;;;;;4943169;28;20229;-75
2021/01/01 01:55:52;;;;;;;10.93;9.77;;;4.20;1.00;;;;;;4948628;28;20345;-73
2021/01/01 01:58:20;;;;;;;10.70;8.68;;;4.20;1.00;;;;;;4940729;28;20212;-74
2021/01/01 02:00:57;;;;;;;11.23;8.30;;;4.20;1.00;;;;;;4943087;28;20296;-74
2021/01/01 02:03:28;;;;;;;15.57;11.68;;;4.20;99.90;;;;;;4942696;28;20233;-73
2021/01/01 02:05:56;;;;;;;12.00;10.38;;;4.20;99.90;;;;;;4944334;28;20223;-75
2021/01/01 02:08:23;;;;;;;12.68;10.70;;;4.20;1.00;;;;;;4944759;28;20266;-73
2021/01/01 02:10:52;;;;;;;12.30;9.52;;;4.20;1.00;;;;;;4944915;28;20247;-72
2021/01/01 02:13:21;;;;;;;12.50;9.75;;;4.20;99.90;;;;;;4943522;28;20215;-74
2021/01/01 02:15:48;;;;;;;11.63;9.60;;;4.20;99.90;;;;;;4938480;28;20232;-74
2021/01/01 02:18:34;;;;;;;11.60;9.25;;;4.20;99.90;;;;;;4946309;28;20278;-73
2021/01/01 02:21:02;;;;;;;12.38;9.55;;;4.10;99.90;;;;;;4946263;28;20261;-72
2021/01/01 02:23:30;;;;;;;16.27;11.93;;;4.10;1.00;;;;;;4943019;28;20235;-73
2021/01/01 02:25:57;;;;;;;13.15;11.05;;;4.10;1.00;;;;;;4944567;28;20298;-75
2021/01/01 02:28:25;;;;;;;11.82;10.25;;;4.20;1.00;;;;;;4942856;28;20230;-72
2021/01/01 02:30:53;;;;;;;13.07;9.35;;;4.20;1.00;;;;;;4941386;28;20624;-74
2021/01/01 02:33:20;;;;;;;13.70;11.40;;;4.10;1.00;;;;;;4941474;28;20207;-77
2021/01/01 02:35:47;;;;;;;12.55;9.73;;;4.10;1.00;;;;;;4942425;28;20214;-73
2021/01/01 02:38:14;;;;;;;15.35;10.75;;;4.00;1.00;;;;;;4940432;28;20651;-74
2021/01/01 02:40:42;;;;;;;12.38;10.27;;;3.90;1.00;;;;;;4943771;28;20204;-74
2021/01/01 02:43:09;;;;;;;14.85;10.63;;;3.90;1.00;;;;;;4946071;28;20235;-74
2021/01/01 02:45:36;;;;;;;13.52;10.13;;;3.90;1.00;;;;;;4945790;28;20210;-72
2021/01/01 02:48:11;;;;;;;13.18;11.15;;;4.00;1.00;;;;;;4939065;28;20236;-74
2021/01/01 02:50:38;;;;;;;12.52;9.90;;;4.10;1.00;;;;;;4941024;28;20506;-73
2021/01/01 02:53:06;;;;;;;12.70;10.13;;;4.10;1.00;;;;;;4950074;28;20229;-75
2021/01/01 02:55:34;;;;;;;14.63;11.40;;;4.20;1.00;;;;;;4946137;28;20931;-74
2021/01/01 02:58:02;;;;;;;14.65;10.73;;;4.10;1.00;;;;;;4946868;28;20233;-74
2021/01/01 03:00:33;;;;;;;12.10;10.10;;;4.10;1.00;;;;;;4947282;28;20220;-77
2021/01/01 03:03:00;;;;;;;12.40;9.25;;;4.20;1.00;;;;;;4946863;28;20319;-73
2021/01/01 03:05:28;;;;;;;14.50;10.25;;;4.20;99.90;;;;;;4946434;28;20249;-74
2021/01/01 03:07:55;;;;;;;13.80;10.40;;;4.20;99.90;;;;;;4936986;29;20311;-74
2021/01/01 03:10:22;;;;;;;14.38;10.10;;;4.10;99.90;;;;;;4948681;28;20748;-75
2021/01/01 03:12:49;;;;;;;13.05;9.38;;;4.00;1.00;;;;;;4944972;28;20833;-74
2021/01/01 03:15:17;;;;;;;11.55;8.80;;;4.00;1.00;;;;;;4947156;28;20306;-74
2021/01/01 03:17:45;;;;;;;11.55;9.27;;;4.10;1.00;;;;;;4941760;28;20782;-75
2021/01/01 03:20:13;;;;;;;11.70;10.05;;;4.10;1.00;;;;;;4952315;28;20232;-74
2021/01/01 03:22:40;;;;;;;11.23;9.88;;;4.10;1.00;;;;;;4940004;28;20690;-74
2021/01/01 03:25:09;;;;;;;12.40;9.80;;;4.20;1.00;;;;;;4950466;28;20225;-74
2021/01/01 03:27:36;;;;;;;12.20;9.10;;;4.20;99.90;;;;;;4942380;28;20216;-72
2021/01/01 03:30:04;;;;;;;14.07;9.95;;;4.20;99.90;;;;;;4952922;28;20210;-74
2021/01/01 03:32:33;;;;;;;12.32;8.68;;;4.20;99.90;;;;;;4940991;28;20228;-73
2021/01/01 03:35:00;;;;;;;14.32;11.15;;;4.30;99.90;;;;;;4948066;28;20215;-72
2021/01/01 03:37:32;;;;;;;12.02;10.07;;;4.30;99.90;;;;;;4944321;28;20702;-72
2021/01/01 03:40:00;;;;;;;13.45;9.98;;;4.30;99.90;;;;;;4948265;28;20253;-73
2021/01/01 03:42:27;;;;;;;14.60;10.50;;;4.30;99.90;;;;;;4944123;28;20440;-72
2021/01/01 03:44:54;;;;;;;13.05;10.35;;;4.30;99.90;;;;;;4946850;28;20215;-72
2021/01/01 03:47:21;;;;;;;15.88;11.27;;;4.30;99.90;;;;;;4945450;28;20952;-72
2021/01/01 03:49:49;;;;;;;14.30;10.88;;;4.30;99.90;;;;;;4943219;28;20224;-73
2021/01/01 03:52:16;;;;;;;14.55;11.15;;;4.30;99.90;;;;;;4945531;28;20239;-72
2021/01/01 03:54:43;;;;;;;12.90;9.45;;;4.30;99.90;;;;;;4961651;28;20217;-72
2021/01/01 03:57:10;;;;;;;14.00;9.93;;;4.20;99.90;;;;;;4945683;28;20680;-73
2021/01/01 03:59:37;;;;;;;12.40;9.48;;;4.20;99.90;;;;;;4937708;28;20220;-75
2021/01/01 04:02:04;;;;;;;11.75;9.68;;;4.20;99.90;;;;;;4941685;28;20243;-73
2021/01/01 04:04:31;;;;;;;11.05;9.40;;;4.20;99.90;;;;;;4946015;28;20215;-72
2021/01/01 04:06:59;;;;;;;12.88;10.52;;;4.20;99.90;;;;;;4948694;28;20214;-73
2021/01/01 04:09:26;;;;;;;13.10;10.45;;;4.20;99.90;;;;;;4943976;28;20232;-75
2021/01/01 04:11:54;;;;;;;14.73;10.90;;;4.20;99.90;;;;;;4946009;28;20308;-72
2021/01/01 04:14:21;;;;;;;12.40;10.43;;;4.20;99.90;;;;;;4950619;28;20207;-75
2021/01/01 04:16:48;;;;;;;12.32;10.63;;;4.30;99.90;;;;;;4947077;28;20214;-73
2021/01/01 04:19:15;;;;;;;13.80;10.70;;;4.20;1.00;;;;;;4949630;28;20225;-78
2021/01/01 04:21:46;;;;;;;15.55;10.52;;;4.20;99.90;;;;;;4941334;28;21244;-77
2021/01/01 04:24:15;;;;;;;14.02;10.73;;;4.20;99.90;;;;;;4947039;28;20225;-76
2021/01/01 04:26:43;;;;;;;11.35;10.07;;;4.10;99.90;;;;;;4946336;28;20212;-73
2021/01/01 04:29:10;;;;;;;13.48;10.48;;;4.00;1.00;;;;;;4943092;28;20220;-73
2021/01/01 04:31:38;;;;;;;11.95;9.85;;;4.10;1.00;;;;;;4942617;28;20812;-74
2021/01/01 04:34:06;;;;;;;10.80;9.30;;;4.10;1.00;;;;;;4947403;28;20203;-72
2021/01/01 04:36:34;;;;;;;13.48;10.50;;;4.20;1.00;;;;;;4942904;28;20207;-74
2021/01/01 04:39:01;;;;;;;13.07;10.43;;;4.20;1.00;;;;;;4944280;28;20205;-73
2021/01/01 04:41:29;;;;;;;10.40;9.30;;;4.20;1.00;;;;;;4940641;28;20237;-73
2021/01/01 04:43:56;;;;;;;13.50;10.50;;;4.20;1.00;;;;;;4945873;28;20230;-73
2021/01/01 04:46:24;;;;;;;14.55;10.23;;;4.20;1.00;;;;;;4947066;28;20217;-72
2021/01/01 04:48:52;;;;;;;11.60;10.18;;;4.20;1.00;;;;;;4948395;28;20215;-72
2021/01/01 04:51:19;;;;;;;13.85;9.88;;;4.20;1.00;;;;;;4940227;28;20808;-73
2021/01/01 04:53:48;;;;;;;12.15;10.02;;;4.30;1.00;;;;;;4944862;28;20210;-75
2021/01/01 04:56:15;;;;;;;11.77;9.68;;;4.20;1.00;;;;;;4943958;28;20702;-73
2021/01/01 04:58:43;;;;;;;12.15;9.50;;;4.20;1.00;;;;;;4946759;28;20462;-73
2021/01/01 05:01:10;;;;;;;14.27;10.50;;;4.20;1.00;;;;;;4937558;28;20242;-72
2021/01/01 05:03:37;;;;;;;13.43;10.30;;;4.20;1.00;;;;;;4945767;28;20269;-76
2021/01/01 05:06:05;;;;;;;13.55;10.10;;;4.10;1.00;;;;;;4944550;28;20679;-73
2021/01/01 05:08:33;;;;;;;13.48;9.77;;;4.20;1.00;;;;;;4944821;28;21023;-73
2021/01/01 05:11:07;;;;;;;13.52;10.40;;;4.20;1.00;;;;;;4948012;28;20272;-72
2021/01/01 05:13:34;;;;;;;14.33;12.17;;;4.10;1.00;;;;;;4937985;28;20471;-74
2021/01/01 05:16:04;;;;;;;15.63;11.38;;;4.10;1.00;;;;;;4943909;28;22822;-74
2021/01/01 05:18:31;;;;;;;14.40;10.52;;;4.20;1.00;;;;;;4946691;28;20219;-71
2021/01/01 05:20:59;;;;;;;12.77;9.82;;;4.20;1.00;;;;;;4944585;28;20263;-73
2021/01/01 05:23:27;;;;;;;13.55;9.82;;;4.20;1.00;;;;;;4940557;28;20232;-73
2021/01/01 05:26:11;;;;;;;13.43;9.00;;;4.20;1.00;;;;;;4945165;28;20227;-73
2021/01/01 05:29:03;;;;;;;16.65;10.50;;;4.20;1.00;;;;;;4939287;28;20244;-73
2021/01/01 05:31:32;;;;;;;14.20;10.00;;;4.20;1.00;;;;;;4940369;28;20329;-74
2021/01/01 05:34:01;;;;;;;13.55;10.45;;;4.30;1.00;;;;;;4954327;28;20211;-72
2021/01/01 05:36:34;;;;;;;12.90;9.85;;;4.30;1.00;;;;;;4944525;28;20216;-72
2021/01/01 05:39:03;;;;;;;14.32;10.77;;;4.20;1.00;;;;;;4938488;28;20206;-76
2021/01/01 05:41:32;;;;;;;12.93;9.40;;;4.30;1.00;;;;;;4942501;28;20236;-73
2021/01/01 05:44:11;;;;;;;13.75;9.43;;;4.30;1.00;;;;;;4947261;28;20247;-71
2021/01/01 05:46:55;;;;;;;15.60;10.57;;;4.30;1.00;;;;;;4946187;28;20859;-73
2021/01/01 05:49:29;;;;;;;11.60;10.00;;;4.30;1.00;;;;;;4940487;28;20212;-73
2021/01/01 05:52:06;;;;;;;14.52;10.05;;;4.30;1.00;;;;;;4941138;28;20227;-77
2021/01/01 05:54:34;;;;;;;14.40;10.73;;;4.30;1.00;;;;;;4965681;28;20216;-73
2021/01/01 05:57:03;;;;;;;15.75;10.70;;;4.30;1.00;;;;;;4943262;28;20209;-74
2021/01/01 05:59:37;;;;;;;12.73;10.48;;;4.20;1.00;;;;;;4940008;28;20254;-73
2021/01/01 06:02:06;;;;;;;11.00;9.38;;;4.20;1.00;;;;;;4935926;28;20240;-73
2021/01/01 06:04:34;;;;;;;12.80;10.50;;;4.30;1.00;;;;;;4944901;28;20691;-75
2021/01/01 06:07:03;;;;;;;15.88;11.40;;;4.20;1.00;;;;;;4945888;28;20587;-73
2021/01/01 06:09:31;;;;;;;14.73;10.98;;;4.20;1.00;;;;;;4942383;28;20208;-73
2021/01/01 06:12:04;;;;;;;13.27;10.57;;;4.20;1.00;;;;;;4943907;28;20233;-72
2021/01/01 06:14:42;;;;;;;12.18;10.27;;;4.20;1.00;;;;;;4945429;28;20231;-73
2021/01/01 06:17:21;;;;;;;15.65;10.98;;;4.20;1.00;;;;;;4946815;28;20674;-73
2021/01/01 06:19:50;;;;;;;14.07;10.57;;;4.20;1.00;;;;;;4942357;29;20298;-74
2021/01/01 06:22:19;;;;;;;13.52;9.80;;;4.10;1.00;;;;;;4944779;28;20223;-73
2021/01/01 06:24:48;;;;;;;15.75;10.65;;;4.10;1.00;;;;;;4949089;28;20705;-73
2021/01/01 06:27:17;;;;;;;16.60;10.23;;;4.10;1.00;;;;;;4946978;28;20305;-73
2021/01/01 06:29:47;;;;;;;14.75;10.25;;;4.10;1.00;;;;;;4941869;28;20218;-75
2021/01/01 06:32:17;;;;;;;14.30;10.63;;;4.10;1.00;;;;;;4939326;28;20760;-73
2021/01/01 06:34:45;;;;;;;13.88;10.10;;;4.10;1.00;;;;;;4950324;28;20211;-74
2021/01/01 06:37:34;;;;;;;11.93;9.20;;;4.00;1.00;;;;;;4942225;28;20680;-75
2021/01/01 06:40:01;;;;;;;14.95;9.98;;;4.00;1.00;;;;;;4945645;28;20214;-73
2021/01/01 06:42:50;;;;;;;13.27;8.95;;;4.00;1.00;;;;;;4944328;28;20234;-74
2021/01/01 06:45:39;;;;;;;11.05;8.73;;;4.00;1.00;;;;;;4942504;28;20216;-75
2021/01/01 06:48:08;;;;;;;11.18;8.45;;;4.00;1.00;;;;;;4941205;28;20218;-74
2021/01/01 06:50:37;;;;;;;9.65;7.53;;;4.00;1.00;;;;;;4943340;28;20277;-74
2021/01/01 06:53:06;;;;;;;15.30;10.00;;;4.00;1.00;;;;;;4943266;28;20288;-72
2021/01/01 06:55:35;;;;;;;12.38;8.45;;;4.00;1.00;;;;;;4943830;28;20227;-74
2021/01/01 06:58:03;;;;;;;11.73;8.68;;;4.00;1.00;;;;;;4944292;28;20735;-73
2021/01/01 07:00:57;;;;;;;10.90;7.72;;;4.00;1.00;;;;;;4939982;28;20237;-73
2021/01/01 07:03:35;;;;;;;9.77;6.90;;;3.90;1.00;;;;;;4936434;28;20248;-73
2021/01/01 07:06:38;;;;;;;9.02;6.90;;;4.00;1.00;;;;;;4942817;28;20252;-73
2021/01/01 07:09:06;;;;;;;8.70;6.57;;;4.00;1.00;;;;;;4942235;28;20301;-75
2021/01/01 07:11:39;;;;;;;8.45;6.20;;;3.90;1.00;;;;;;4944321;28;20238;-73
2021/01/01 07:14:09;;;;;;;8.63;6.25;;;3.90;1.00;;;;;;4946207;28;20214;-70
2021/01/01 07:16:41;;;;;;;8.45;5.72;;;3.90;1.00;;;;;;4939511;28;20218;-72
2021/01/01 07:19:09;;;;;;;7.03;6.28;;;3.90;1.00;;;;;;4941510;29;20239;-72
2021/01/01 07:21:38;;;;;;;7.70;5.70;;;3.90;1.00;;;;;;4939171;28;20866;-74
2021/01/01 07:24:07;;;;;;;9.00;6.45;;;3.90;1.00;;;;;;4945297;28;20234;-72
2021/01/01 07:26:34;;;;;;;8.10;5.47;;;4.00;1.00;;;;;;4945290;28;20681;-72
2021/01/01 07:29:03;;;;;;;7.80;5.80;;;4.00;1.00;;;;;;4947559;28;20218;-76
2021/01/01 07:31:30;;;;;;;7.45;5.65;;;4.00;1.00;;;;;;4945833;28;20234;-73
2021/01/01 07:34:07;;;;;;;7.80;5.40;;;4.00;1.00;;;;;;4946361;28;20303;-73
2021/01/01 07:36:35;;;;;;;5.72;4.97;;;4.00;1.00;;;;;;4944290;28;20276;-72
2021/01/01 07:39:06;;;;;;;6.32;4.28;;;4.00;1.00;;;;;;4942542;28;20217;-73
2021/01/01 07:41:33;;;;;;;7.15;4.72;;;4.00;1.00;;;;;;4944329;28;20235;-72
2021/01/01 07:44:01;;;;;;;6.90;5.97;;;4.10;1.00;;;;;;4947215;28;20226;-72
2021/01/01 07:46:31;;;;;;;5.38;4.68;;;4.10;1.00;;;;;;4946290;28;20315;-75
2021/01/01 07:48:58;;;;;;;7.15;4.95;;;4.10;1.00;;;;;;4942232;28;20754;-72
2021/01/01 07:51:25;;;;;;;5.90;4.40;;;4.10;1.00;;;;;;4943357;28;20747;-70
2021/01/01 07:54:12;;;;;;;7.40;5.60;;;4.10;1.00;;;;;;4948343;29;20691;-72
2021/01/01 07:56:39;;;;;;;7.40;5.45;;;4.20;1.00;;;;;;4945704;28;20214;-73
2021/01/01 07:59:06;;;;;;;6.43;4.97;;;4.10;1.00;;;;;;4944489;28;20222;-73
2021/01/01 08:01:34;;;;;;;7.00;5.10;;;4.20;1.00;;;;;;4939983;28;20231;-72
2021/01/01 08:04:02;;;;;;;6.13;4.50;;;4.10;1.00;;;;;;4945345;28;20715;-73
2021/01/01 08:06:34;;;;;;;5.10;4.22;;;4.20;1.00;;;;;;4947921;28;20633;-72
2021/01/01 08:09:04;;;;;;;5.90;4.57;;;4.10;1.00;;;;;;4941735;28;20208;-74
2021/01/01 08:11:33;;;;;;;5.03;4.10;;;4.20;1.00;;;;;;4945907;28;20659;-75
2021/01/01 08:14:01;;;;;;;7.80;5.38;;;4.20;1.00;;;;;;4945955;28;20747;-73
2021/01/01 08:16:28;;;;;;;5.40;4.90;;;4.20;99.90;;;;;;4947254;28;20213;-72
2021/01/01 08:18:55;;;;;;;6.20;4.85;;;4.30;99.90;;;;;;4948377;28;20216;-75
2021/01/01 08:21:22;;;;;;;4.95;4.45;;;4.30;99.90;;;;;;4944061;28;20255;-76
2021/01/01 08:23:59;;;;;;;6.25;4.40;;;4.30;99.90;;;;;;4948527;28;20249;-73
2021/01/01 08:26:27;;;;;;;5.43;4.47;;;4.30;99.90;;;;;;4943055;28;20217;-73
2021/01/01 08:28:57;;;;;;;8.25;5.82;;;4.30;99.90;;;;;;4943515;28;20219;-73
2021/01/01 08:31:25;;;;;;;7.28;6.03;;;4.30;99.90;;;;;;4944196;28;20262;-74
2021/01/01 08:33:53;;;;;;;6.78;5.30;;;4.30;99.90;;;;;;4945162;29;20855;-73
2021/01/01 08:36:29;;;;;;;9.10;6.45;;;4.30;99.90;;;;;;4961719;28;20240;-72
2021/01/01 08:39:06;;;;;;;7.72;5.85;;;4.30;1.00;;;;;;4950943;28;20480;-72
2021/01/01 08:41:40;;;;;;;8.10;5.80;;;4.30;99.90;;;;;;4943402;28;20287;-71
2021/01/01 08:44:09;;;;;;;7.80;5.97;;;4.30;99.90;;;;;;4948936;28;21430;-74
2021/01/01 08:46:36;;;;;;;8.15;5.15;;;4.30;99.90;;;;;;4945385;28;20275;-74
2021/01/01 08:49:17;;;;;;;7.55;5.57;;;4.30;99.90;;;;;;4934051;28;20213;-73
2021/01/01 08:51:45;;;;;;;5.85;5.35;;;4.30;99.90;;;;;;4935726;28;20229;-75
2021/01/01 08:54:22;;;;;;;5.03;4.22;;;4.30;99.90;;;;;;4934542;28;20638;-76
2021/01/01 08:56:57;;;;;;;4.95;4.03;;;4.20;99.90;;;;;;4936529;28;20273;-73
2021/01/01 08:59:26;;;;;;;5.82;4.55;;;4.30;99.90;;;;;;4936231;28;20695;-75
2021/01/01 09:01:54;;;;;;;3.58;3.08;;;4.40;99.90;;;;;;4933935;28;20296;-72
2021/01/01 09:04:24;;;;;;;4.28;3.63;;;4.40;99.90;;;;;;4941186;28;20494;-74
2021/01/01 09:06:59;;;;;;;3.13;2.80;;;4.50;99.90;;;;;;4936327;28;20505;-73
2021/01/01 09:09:29;;;;;;;2.92;2.72;;;4.60;32.40;;;;;;4934424;28;20862;-72
2021/01/01 09:12:11;;;;;;;4.07;3.67;;;4.60;1.00;;;;;;4939963;28;20485;-73
2021/01/01 09:14:47;;;;;;;6.70;5.40;;;4.60;1.00;;;;;;4938791;28;20472;-74
2021/01/01 09:17:14;;;;;;;4.15;3.10;;;4.70;99.90;;;;;;4938230;28;20653;-75
2021/01/01 09:19:42;;;;;;;3.97;3.53;;;4.70;1.00;;;;;;4958384;28;20602;-75
2021/01/01 09:22:17;;;;;;;3.40;3.17;;;4.80;70.90;;;;;;4955380;28;20312;-74
2021/01/01 09:24:45;;;;;;;4.10;3.45;;;4.90;99.90;;;;;;4939736;28;20231;-73
2021/01/01 09:27:12;;;;;;;3.40;2.60;;;5.00;1.00;;;;;;4939604;28;20233;-74
2021/01/01 09:29:41;;;;;;;3.85;3.25;;;5.00;99.90;;;;;;4939112;28;20291;-74
2021/01/01 09:32:13;;;;;;;3.28;2.50;;;4.80;99.90;;;;;;4936560;28;20235;-73
2021/01/01 09:34:40;;;;;;;2.83;2.47;;;4.70;1.00;;;;;;4934957;28;20231;-76
2021/01/01 09:37:08;;;;;;;2.20;2.00;;;4.70;99.90;;;;;;4942004;28;20290;-71
2021/01/01 09:39:36;;;;;;;4.05;2.15;;;4.60;99.90;;;;;;4943013;28;20799;-74
2021/01/01 09:42:03;;;;;;;2.05;1.65;;;4.50;1.00;;;;;;4944494;28;20249;-74
2021/01/01 09:44:30;;;;;;;1.67;1.58;;;4.60;99.90;;;;;;4944624;28;20287;-74
2021/01/01 09:46:58;;;;;;;1.63;1.52;;;4.80;99.90;;;;;;4951539;28;20696;-73
2021/01/01 09:49:26;;;;;;;1.90;1.60;;;4.80;95.10;;;;;;4935224;28;20467;-74
2021/01/01 09:51:53;;;;;;;1.88;1.67;;;4.70;99.90;;;;;;4936506;28;20235;-75
2021/01/01 09:54:36;;;;;;;1.50;1.40;;;4.70;99.90;;;;;;4933463;28;21012;-76
2021/01/01 09:57:03;;;;;;;2.10;1.88;;;4.70;68.90;;;;;;4934598;28;20587;-75
2021/01/01 09:59:31;;;;;;;1.13;1.13;;;4.90;94.10;;;;;;4935242;28;20224;-72
2021/01/01 10:01:58;;;;;;;1.55;1.45;;;5.10;99.90;;;;;;4938857;28;20249;-72
2021/01/01 10:04:26;;;;;;;1.58;1.35;;;5.30;1.00;;;;;;4933917;28;20277;-76
2021/01/01 10:06:54;;;;;;;2.35;1.40;;;5.50;99.90;;;;;;4949594;28;20215;-74
2021/01/01 10:09:21;;;;;;;1.20;1.10;;;5.70;99.90;;;;;;4937178;28;20217;-73
2021/01/01 10:11:49;;;;;;;1.50;1.40;;;5.50;99.90;;;;;;4941751;28;20956;-75
2021/01/01 10:14:16;;;;;;;5.45;4.10;;;5.60;1.00;;;;;;4948585;28;20212;-75
2021/01/01 10:16:46;;;;;;;3.03;1.90;;;5.60;99.90;;;;;;4943883;28;20215;-73
2021/01/01 10:19:14;;;;;;;3.78;2.80;;;5.50;99.90;;;;;;4942941;28;20497;-74
2021/01/01 10:21:42;;;;;;;2.28;2.00;;;5.40;1.00;;;;;;4945110;28;20333;-74
2021/01/01 10:24:09;;;;;;;1.85;1.75;;;5.40;1.00;;;;;;4940286;28;20285;-73
2021/01/01 10:26:36;;;;;;;1.63;1.52;;;5.40;1.00;;;;;;4947824;28;20215;-74
2021/01/01 10:29:14;;;;;;;1.75;1.50;;;5.40;99.90;;;;;;4948991;28;20215;-74
2021/01/01 10:31:42;;;;;;;2.58;2.20;;;5.10;99.90;;;;;;4943378;28;20218;-73
2021/01/01 10:34:09;;;;;;;1.52;1.42;;;5.30;1.00;;;;;;4956358;28;20710;-74
2021/01/01 10:36:36;;;;;;;1.42;1.33;;;5.40;99.90;;;;;;4954607;28;20592;-73
2021/01/01 10:39:06;;;;;;;1.60;1.50;;;5.50;1.00;;;;;;4948899;28;20212;-72
2021/01/01 10:41:33;;;;;;;2.80;2.15;;;5.50;99.90;;;;;;4941395;28;20241;-77
2021/01/01 10:44:01;;;;;;;2.40;1.90;;;5.30;99.90;;;;;;4944255;28;20238;-71
2021/01/01 10:46:28;;;;;;;3.03;2.05;;;5.00;99.90;;;;;;4943129;28;20245;-72
2021/01/01 10:48:55;;;;;;;1.80;1.70;;;5.00;1.00;;;;;;4960029;28;20218;-73
2021/01/01 10:51:26;;;;;;;2.40;2.20;;;5.20;1.00;;;;;;4944447;28;20786;-73
2021/01/01 10:53:53;;;;;;;2.13;1.73;;;5.40;1.00;;;;;;4950999;28;20875;-72
2021/01/01 10:56:25;;;;;;;2.10;1.90;;;5.40;1.00;;;;;;4950161;28;20207;-73
2021/01/01 10:58:52;;;;;;;2.05;1.90;;;5.50;1.00;;;;;;4947498;28;20585;-74
2021/01/01 11:01:21;;;;;;;1.90;1.70;;;5.50;1.00;;;;;;4948562;28;20229;-73
2021/01/01 11:03:49;;;;;;;2.38;2.17;;;5.40;99.90;;;;;;4958588;28;20229;-76
2021/01/01 11:06:16;;;;;;;2.50;1.70;;;5.40;1.00;;;;;;4952677;28;20206;-75
2021/01/01 11:08:44;;;;;;;2.50;2.00;;;5.50;99.90;;;;;;4961256;28;20213;-73
2021/01/01 11:11:13;;;;;;;1.70;1.60;;;5.30;99.90;;;;;;4958645;28;20277;-73
2021/01/01 11:13:46;;;;;;;1.90;1.50;;;5.20;99.90;;;;;;4965565;28;20212;-76
2021/01/01 12:22:40;;;;;;;2.20;2.00;;;5.80;36.80;;;;;;4947008;28;20238;-74
2021/01/01 12:25:10;;;;;;;1.80;1.70;;;5.90;1.00;;;;;;4949277;28;20218;-75
2021/01/01 12:27:37;;;;;;;2.00;1.80;;;5.90;1.00;;;;;;4950287;29;20558;-74
2021/01/01 12:30:06;;;;;;;2.53;1.90;;;5.90;1.00;;;;;;4949491;28;20479;-76
2021/01/01 12:32:36;;;;;;;2.55;2.20;;;5.90;1.00;;;;;;4948797;28;20511;-75
2021/01/01 12:35:06;;;;;;;2.45;1.80;;;6.00;1.00;;;;;;4944414;28;20213;-75
2021/01/01 12:37:33;;;;;;;2.00;1.80;;;6.00;1.00;;;;;;4948067;28;20216;-74
2021/01/01 12:40:01;;;;;;;1.70;1.60;;;6.20;1.00;;;;;;4946635;28;20206;-74
2021/01/01 12:42:28;;;;;;;1.70;1.60;;;6.10;1.00;;;;;;4949204;28;20236;-75
2021/01/01 12:44:55;;;;;;;2.13;1.70;;;6.00;1.00;;;;;;4946880;28;20218;-74
2021/01/01 12:47:22;;;;;;;2.10;1.85;;;6.00;1.00;;;;;;4948624;28;20223;-75
2021/01/01 12:49:49;;;;;;;2.30;2.10;;;6.00;1.00;;;;;;4946069;28;20678;-74
2021/01/01 12:52:17;;;;;;;3.00;2.33;;;5.90;1.00;;;;;;4948408;28;20659;-74
2021/01/01 12:54:44;;;;;;;2.25;2.05;;;5.70;1.00;;;;;;4950717;28;20215;-76
2021/01/01 12:57:11;;;;;;;3.42;2.35;;;5.60;1.00;;;;;;4947377;28;20206;-75
2021/01/01 12:59:38;;;;;;;3.00;2.70;;;5.60;1.00;;;;;;4944749;28;20210;-76
2021/01/01 13:02:05;;;;;;;2.20;2.00;;;5.60;1.00;;;;;;4945245;28;20224;-75
2021/01/01 13:04:33;;;;;;;3.80;2.50;;;5.40;1.00;;;;;;4949521;28;20276;-73
2021/01/01 13:07:00;;;;;;;2.70;2.00;;;5.40;1.00;;;;;;4943758;28;20338;-74
2021/01/01 13:09:29;;;;;;;2.10;1.83;;;5.50;1.00;;;;;;4945572;28;20303;-74
2021/01/01 13:11:56;;;;;;;2.38;2.10;;;5.50;1.00;;;;;;4947552;28;20233;-75
2021/01/01 13:14:24;;;;;;;2.65;2.45;;;5.60;1.00;;;;;;4949872;28;20208;-74
2021/01/01 13:16:51;;;;;;;1.92;1.83;;;5.60;1.00;;;;;;4960549;28;20200;-76
2021/01/01 13:19:18;;;;;;;1.73;1.60;;;5.70;1.00;;;;;;4950417;28;20212;-74
2021/01/01 13:21:46;;;;;;;2.85;2.40;;;5.70;1.00;;;;;;4955073;28;20312;-74
2021/01/01 13:24:13;;;;;;;1.95;1.85;;;5.70;1.00;;;;;;4958259;28;20226;-74
2021/01/01 13:26:42;;;;;;;2.47;2.28;;;5.80;1.00;;;;;;4959324;28;20701;-75
2021/01/01 13:29:09;;;;;;;2.30;1.80;;;5.80;1.00;;;;;;4955687;28;20233;-75
2021/01/01 13:31:37;;;;;;;2.80;2.17;;;5.70;1.00;;;;;;4947311;28;20603;-76
2021/01/01 13:34:06;;;;;;;2.85;2.05;;;5.70;1.00;;;;;;4952945;28;20203;-75
2021/01/01 13:36:34;;;;;;;2.92;2.40;;;5.60;1.00;;;;;;4954049;28;20765;-74
2021/01/01 13:39:02;;;;;;;2.22;2.03;;;5.70;1.00;;;;;;4947731;28;20206;-79
2021/01/01 13:41:29;;;;;;;2.35;2.08;;;5.90;1.00;;;;;;4951579;28;20234;-76
2021/01/01 13:43:57;;;;;;;2.78;2.00;;;6.00;1.00;;;;;;4953983;28;20333;-75
2021/01/01 13:46:26;;;;;;;2.03;1.83;;;6.10;1.00;;;;;;4954684;28;20303;-77
2021/01/01 13:48:54;;;;;;;2.47;2.15;;;6.30;1.00;;;;;;4961552;28;20471;-74
2021/01/01 13:51:27;;;;;;;2.20;2.10;;;6.50;1.00;;;;;;4949137;28;20228;-76
2021/01/01 13:53:55;;;;;;;1.90;1.70;;;6.60;1.00;;;;;;4949627;28;20466;-75
2021/01/01 13:56:25;;;;;;;2.33;2.13;;;6.80;1.00;;;;;;4961117;28;20207;-75
2021/01/01 13:58:52;;;;;;;2.95;2.65;;;6.80;1.00;;;;;;4951938;28;20268;-76
2021/01/01 14:01:22;;;;;;;2.25;2.05;;;6.80;1.00;;;;;;4955275;28;20303;-76
2021/01/01 14:03:49;;;;;;;2.23;1.97;;;6.80;1.00;;;;;;4953613;28;20229;-75
2021/01/01 14:06:17;;;;;;;2.50;2.30;;;6.70;1.00;;;;;;4956965;28;20465;-77
2021/01/01 14:08:44;;;;;;;2.50;2.30;;;6.50;1.00;;;;;;4949447;28;20476;-76
2021/01/01 14:11:12;;;;;;;2.65;2.30;;;6.50;1.00;;;;;;4951433;28;20213;-78
2021/01/01 14:13:40;;;;;;;3.65;2.53;;;6.40;1.00;;;;;;4945095;28;20214;-76
2021/01/01 14:16:09;;;;;;;2.08;1.90;;;6.30;1.00;;;;;;4948348;28;20284;-76